If you wish to contribute or participate in the discussions about articles you are invited to join SKYbrary as a registered user

 Actions

Graz

From SKYbrary Wiki

LOWG
Airport
ICAO: LOWG
Summary
Name Graz
Region Europe
Territory Austria AT.gif
Location Graz, Austria
Serving
Coordinates 46° 59' 36.00" N, 15° 26' 18.00" E
Runways
Designator Length Width Surface ROPS
17C/35C 3000 m9,842.52 ft
45 m147.638 ft
ASP yes/yes
17L/35R 640 m2,099.738 ft
30 m98.425 ft
GRS /
17R/35L 760 m2,493.438 ft
25 m82.021 ft
GRS /


METAR
Observation LOWG 191620Z VRB02KT 9999 FEW050 SCT070 BKN250 08/06 Q1018 NOSIG
Station Graz-Thalerhof-Flughafen
Date/Time 19 November 2019 16:20:00
Wind direction °
Wind speed 02 kts
Lowest cloud amount few clouds
Temperature 8°C
Dew point 6°C
Humidity 87%
QNH 1018 hPa
Weather condition n/a


Graz Airport

ICAO: LOWG IATA: GRZ

Description

International airport serving southern Austrian city of Graz.

Climatology

Sheltered from westerly weather systems by the Alps, Graz has a Dry-summer subtropical ”Mediterranean" climate (Köppen climate classification Csa) - characterized by hot, dry summers and mild winters. During the summer, subtropical high pressure cells dominate, making rainfall unlikely except for the occasional thunderstorm. In the winter, periodic storms bring rain (snow at higher elevations).

Maps

Terrain

Loading map...

Airport Layout

Loading map...


Accidents & Serious Incidents at or in vicinity of LOWG

None on SKYbrary